sensor_id;sensor_type;location;lat;lon;timestamp;P1;durP1;ratioP1;P2;durP2;ratioP2
10045;SDS011;5063;50.878;4.742;2022-11-20T00:00:50;23.53;;;17.43;;
10045;SDS011;5063;50.878;4.742;2022-11-20T00:03:16;26.83;;;17.90;;
10045;SDS011;5063;50.878;4.742;2022-11-20T00:05:42;26.70;;;17.57;;
10045;SDS011;5063;50.878;4.742;2022-11-20T00:08:09;34.00;;;18.77;;
10045;SDS011;5063;50.878;4.742;2022-11-20T00:10:41;23.93;;;16.20;;
10045;SDS011;5063;50.878;4.742;2022-11-20T00:13:07;24.97;;;16.50;;
10045;SDS011;5063;50.878;4.742;2022-11-20T00:15:33;22.40;;;16.03;;
10045;SDS011;5063;50.878;4.742;2022-11-20T00:17:59;22.60;;;15.80;;
10045;SDS011;5063;50.878;4.742;2022-11-20T00:20:24;25.27;;;15.70;;
10045;SDS011;5063;50.878;4.742;2022-11-20T00:22:50;25.30;;;16.60;;
10045;SDS011;5063;50.878;4.742;2022-11-20T00:25:16;24.13;;;16.40;;
10045;SDS011;5063;50.878;4.742;2022-11-20T00:27:42;25.27;;;16.40;;
10045;SDS011;5063;50.878;4.742;2022-11-20T00:30:08;20.87;;;15.23;;
10045;SDS011;5063;50.878;4.742;2022-11-20T00:32:34;23.77;;;17.07;;
10045;SDS011;5063;50.878;4.742;2022-11-20T00:34:59;24.50;;;17.03;;
10045;SDS011;5063;50.878;4.742;2022-11-20T00:37:25;25.03;;;17.00;;
10045;SDS011;5063;50.878;4.742;2022-11-20T00:39:51;25.80;;;17.47;;
10045;SDS011;5063;50.878;4.742;2022-11-20T00:42:17;26.17;;;17.57;;
10045;SDS011;5063;50.878;4.742;2022-11-20T00:44:43;26.67;;;18.63;;
10045;SDS011;5063;50.878;4.742;2022-11-20T00:47:09;22.97;;;16.47;;
10045;SDS011;5063;50.878;4.742;2022-11-20T00:49:35;25.17;;;17.53;;
10045;SDS011;5063;50.878;4.742;2022-11-20T00:52:01;22.67;;;16.97;;
10045;SDS011;5063;50.878;4.742;2022-11-20T00:54:27;22.83;;;17.27;;
10045;SDS011;5063;50.878;4.742;2022-11-20T00:56:53;22.63;;;16.83;;
10045;SDS011;5063;50.878;4.742;2022-11-20T00:59:18;29.10;;;18.57;;
10045;SDS011;5063;50.878;4.742;2022-11-20T01:01:44;25.00;;;17.97;;
10045;SDS011;5063;50.878;4.742;2022-11-20T01:04:10;22.30;;;15.93;;
10045;SDS011;5063;50.878;4.742;2022-11-20T01:06:36;20.83;;;16.53;;
10045;SDS011;5063;50.878;4.742;2022-11-20T01:09:07;25.10;;;18.27;;
10045;SDS011;5063;50.878;4.742;2022-11-20T01:11:40;24.90;;;17.20;;
10045;SDS011;5063;50.878;4.742;2022-11-20T01:14:09;22.93;;;16.93;;
10045;SDS011;5063;50.878;4.742;2022-11-20T01:16:42;22.90;;;16.73;;
10045;SDS011;5063;50.878;4.742;2022-11-20T01:19:11;28.23;;;16.80;;
10045;SDS011;5063;50.878;4.742;2022-11-20T01:21:40;26.17;;;17.50;;
10045;SDS011;5063;50.878;4.742;2022-11-20T01:24:07;27.87;;;19.07;;
10045;SDS011;5063;50.878;4.742;2022-11-20T01:26:37;31.10;;;18.63;;
10045;SDS011;5063;50.878;4.742;2022-11-20T01:29:04;28.43;;;17.90;;
10045;SDS011;5063;50.878;4.742;2022-11-20T01:31:35;29.27;;;18.70;;
10045;SDS011;5063;50.878;4.742;2022-11-20T01:34:02;27.03;;;17.87;;
10045;SDS011;5063;50.878;4.742;2022-11-20T01:36:34;30.50;;;18.17;;
10045;SDS011;5063;50.878;4.742;2022-11-20T01:39:03;26.27;;;18.33;;
10045;SDS011;5063;50.878;4.742;2022-11-20T01:41:31;28.73;;;17.80;;
10045;SDS011;5063;50.878;4.742;2022-11-20T01:44:19;31.47;;;18.90;;
10045;SDS011;5063;50.878;4.742;2022-11-20T01:47:00;26.83;;;18.20;;
10045;SDS011;5063;50.878;4.742;2022-11-20T01:49:42;30.30;;;20.37;;
10045;SDS011;5063;50.878;4.742;2022-11-20T01:55:02;28.23;;;18.63;;
10045;SDS011;5063;50.878;4.742;2022-11-20T01:57:31;34.43;;;18.93;;
10045;SDS011;5063;50.878;4.742;2022-11-20T02:00:03;27.20;;;18.40;;
10045;SDS011;5063;50.878;4.742;2022-11-20T02:02:32;29.43;;;18.83;;
10045;SDS011;5063;50.878;4.742;2022-11-20T02:05:01;25.57;;;18.27;;
10045;SDS011;5063;50.878;4.742;2022-11-20T02:07:34;27.13;;;18.60;;
10045;SDS011;5063;50.878;4.742;2022-11-20T02:10:00;30.10;;;19.77;;
10045;SDS011;5063;50.878;4.742;2022-11-20T02:12:26;27.60;;;18.97;;
10045;SDS011;5063;50.878;4.742;2022-11-20T02:15:11;28.23;;;18.50;;
10045;SDS011;5063;50.878;4.742;2022-11-20T02:17:37;31.57;;;18.93;;
10045;SDS011;5063;50.878;4.742;2022-11-20T02:20:03;30.97;;;18.77;;
10045;SDS011;5063;50.878;4.742;2022-11-20T02:22:31;29.37;;;19.47;;
10045;SDS011;5063;50.878;4.742;2022-11-20T02:25:03;30.27;;;19.03;;
10045;SDS011;5063;50.878;4.742;2022-11-20T02:27:31;24.50;;;18.07;;
10045;SDS011;5063;50.878;4.742;2022-11-20T02:29:57;26.33;;;17.97;;
10045;SDS011;5063;50.878;4.742;2022-11-20T02:32:28;30.10;;;17.23;;
10045;SDS011;5063;50.878;4.742;2022-11-20T02:34:56;28.03;;;18.20;;
10045;SDS011;5063;50.878;4.742;2022-11-20T02:37:23;26.77;;;17.90;;
10045;SDS011;5063;50.878;4.742;2022-11-20T02:39:57;25.50;;;17.47;;
10045;SDS011;5063;50.878;4.742;2022-11-20T02:42:23;28.03;;;18.00;;
10045;SDS011;5063;50.878;4.742;2022-11-20T02:44:48;29.97;;;18.90;;
10045;SDS011;5063;50.878;4.742;2022-11-20T02:47:14;33.33;;;20.00;;
10045;SDS011;5063;50.878;4.742;2022-11-20T02:49:40;27.90;;;18.80;;
10045;SDS011;5063;50.878;4.742;2022-11-20T02:52:05;29.77;;;19.93;;
10045;SDS011;5063;50.878;4.742;2022-11-20T02:54:31;34.20;;;20.70;;
10045;SDS011;5063;50.878;4.742;2022-11-20T02:56:57;31.93;;;22.53;;
10045;SDS011;5063;50.878;4.742;2022-11-20T02:59:23;32.60;;;21.47;;
10045;SDS011;5063;50.878;4.742;2022-11-20T03:01:48;30.23;;;20.67;;
10045;SDS011;5063;50.878;4.742;2022-11-20T03:04:14;30.97;;;20.53;;
10045;SDS011;5063;50.878;4.742;2022-11-20T03:06:40;36.13;;;21.00;;
10045;SDS011;5063;50.878;4.742;2022-11-20T03:09:05;35.53;;;21.00;;
10045;SDS011;5063;50.878;4.742;2022-11-20T03:11:31;34.07;;;21.23;;
10045;SDS011;5063;50.878;4.742;2022-11-20T03:13:57;32.87;;;20.87;;
10045;SDS011;5063;50.878;4.742;2022-11-20T03:16:22;35.30;;;20.03;;
10045;SDS011;5063;50.878;4.742;2022-11-20T03:18:48;35.03;;;21.13;;
10045;SDS011;5063;50.878;4.742;2022-11-20T03:21:16;33.27;;;19.93;;
10045;SDS011;5063;50.878;4.742;2022-11-20T03:23:42;30.73;;;19.23;;
10045;SDS011;5063;50.878;4.742;2022-11-20T03:26:15;35.87;;;21.10;;
10045;SDS011;5063;50.878;4.742;2022-11-20T03:28:54;35.23;;;21.13;;
10045;SDS011;5063;50.878;4.742;2022-11-20T03:31:23;36.70;;;23.00;;
10045;SDS011;5063;50.878;4.742;2022-11-20T03:33:51;38.67;;;22.40;;
10045;SDS011;5063;50.878;4.742;2022-11-20T03:36:18;33.83;;;20.83;;
10045;SDS011;5063;50.878;4.742;2022-11-20T03:38:44;35.40;;;21.33;;
10045;SDS011;5063;50.878;4.742;2022-11-20T03:41:14;39.50;;;21.10;;
10045;SDS011;5063;50.878;4.742;2022-11-20T03:43:41;38.30;;;21.63;;
10045;SDS011;5063;50.878;4.742;2022-11-20T03:46:07;38.20;;;21.37;;
10045;SDS011;5063;50.878;4.742;2022-11-20T03:48:32;36.73;;;22.03;;
10045;SDS011;5063;50.878;4.742;2022-11-20T03:51:09;34.70;;;21.07;;
10045;SDS011;5063;50.878;4.742;2022-11-20T03:53:40;30.20;;;20.83;;
10045;SDS011;5063;50.878;4.742;2022-11-20T03:56:07;37.73;;;22.47;;
10045;SDS011;5063;50.878;4.742;2022-11-20T03:58:34;34.03;;;20.67;;
10045;SDS011;5063;50.878;4.742;2022-11-20T04:01:05;33.33;;;20.33;;
10045;SDS011;5063;50.878;4.742;2022-11-20T04:03:32;31.97;;;19.13;;
10045;SDS011;5063;50.878;4.742;2022-11-20T04:06:02;36.80;;;21.30;;
10045;SDS011;5063;50.878;4.742;2022-11-20T04:08:30;33.20;;;21.43;;
10045;SDS011;5063;50.878;4.742;2022-11-20T04:10:56;35.63;;;21.40;;
10045;SDS011;5063;50.878;4.742;2022-11-20T04:13:21;36.53;;;19.53;;
10045;SDS011;5063;50.878;4.742;2022-11-20T04:15:47;37.27;;;20.97;;
10045;SDS011;5063;50.878;4.742;2022-11-20T04:18:12;32.53;;;20.30;;
10045;SDS011;5063;50.878;4.742;2022-11-20T04:20:38;32.90;;;20.27;;
10045;SDS011;5063;50.878;4.742;2022-11-20T04:23:04;30.03;;;20.40;;
10045;SDS011;5063;50.878;4.742;2022-11-20T04:25:30;34.13;;;20.77;;
10045;SDS011;5063;50.878;4.742;2022-11-20T04:27:55;33.50;;;19.77;;
10045;SDS011;5063;50.878;4.742;2022-11-20T04:30:21;31.20;;;19.70;;
10045;SDS011;5063;50.878;4.742;2022-11-20T04:32:46;30.07;;;20.10;;
10045;SDS011;5063;50.878;4.742;2022-11-20T04:35:12;34.33;;;18.73;;
10045;SDS011;5063;50.878;4.742;2022-11-20T04:37:38;29.27;;;18.87;;
10045;SDS011;5063;50.878;4.742;2022-11-20T04:40:04;31.93;;;19.40;;
10045;SDS011;5063;50.878;4.742;2022-11-20T04:42:30;31.30;;;19.10;;
10045;SDS011;5063;50.878;4.742;2022-11-20T04:44:56;35.20;;;22.00;;
10045;SDS011;5063;50.878;4.742;2022-11-20T04:47:22;32.83;;;20.97;;
10045;SDS011;5063;50.878;4.742;2022-11-20T04:49:48;31.30;;;20.70;;
10045;SDS011;5063;50.878;4.742;2022-11-20T04:52:13;38.03;;;21.20;;
10045;SDS011;5063;50.878;4.742;2022-11-20T04:54:39;33.60;;;21.77;;
10045;SDS011;5063;50.878;4.742;2022-11-20T04:57:05;33.07;;;20.73;;
10045;SDS011;5063;50.878;4.742;2022-11-20T04:59:31;37.83;;;21.40;;
10045;SDS011;5063;50.878;4.742;2022-11-20T05:01:56;32.23;;;21.70;;
10045;SDS011;5063;50.878;4.742;2022-11-20T05:04:22;33.27;;;19.90;;
10045;SDS011;5063;50.878;4.742;2022-11-20T05:06:49;35.67;;;20.30;;
10045;SDS011;5063;50.878;4.742;2022-11-20T05:09:15;32.80;;;20.40;;
10045;SDS011;5063;50.878;4.742;2022-11-20T05:11:40;28.93;;;17.73;;
10045;SDS011;5063;50.878;4.742;2022-11-20T05:14:06;30.43;;;19.20;;
10045;SDS011;5063;50.878;4.742;2022-11-20T05:16:33;27.50;;;17.00;;
10045;SDS011;5063;50.878;4.742;2022-11-20T05:18:59;32.03;;;17.97;;
10045;SDS011;5063;50.878;4.742;2022-11-20T05:21:25;34.57;;;18.80;;
10045;SDS011;5063;50.878;4.742;2022-11-20T05:23:51;27.93;;;18.17;;
10045;SDS011;5063;50.878;4.742;2022-11-20T05:26:20;29.77;;;18.40;;
10045;SDS011;5063;50.878;4.742;2022-11-20T05:28:47;32.13;;;20.47;;
10045;SDS011;5063;50.878;4.742;2022-11-20T05:31:14;30.43;;;18.30;;
10045;SDS011;5063;50.878;4.742;2022-11-20T05:33:42;29.33;;;17.77;;
10045;SDS011;5063;50.878;4.742;2022-11-20T05:36:09;32.63;;;18.63;;
10045;SDS011;5063;50.878;4.742;2022-11-20T05:38:36;31.70;;;18.03;;
10045;SDS011;5063;50.878;4.742;2022-11-20T05:41:03;32.30;;;19.40;;
10045;SDS011;5063;50.878;4.742;2022-11-20T05:43:31;33.27;;;17.97;;
10045;SDS011;5063;50.878;4.742;2022-11-20T05:45:58;30.80;;;18.57;;
10045;SDS011;5063;50.878;4.742;2022-11-20T05:48:24;29.47;;;18.17;;
10045;SDS011;5063;50.878;4.742;2022-11-20T05:50:50;30.63;;;18.20;;
10045;SDS011;5063;50.878;4.742;2022-11-20T05:53:16;30.03;;;18.03;;
10045;SDS011;5063;50.878;4.742;2022-11-20T05:55:41;31.33;;;18.13;;
10045;SDS011;5063;50.878;4.742;2022-11-20T05:58:07;27.50;;;17.07;;
10045;SDS011;5063;50.878;4.742;2022-11-20T06:00:33;30.63;;;18.30;;
10045;SDS011;5063;50.878;4.742;2022-11-20T06:02:58;33.07;;;18.67;;
10045;SDS011;5063;50.878;4.742;2022-11-20T06:05:24;27.20;;;17.77;;
10045;SDS011;5063;50.878;4.742;2022-11-20T06:07:50;24.43;;;15.17;;
10045;SDS011;5063;50.878;4.742;2022-11-20T06:10:15;31.13;;;18.47;;
10045;SDS011;5063;50.878;4.742;2022-11-20T06:12:41;32.67;;;19.40;;
10045;SDS011;5063;50.878;4.742;2022-11-20T06:15:07;30.50;;;18.87;;
10045;SDS011;5063;50.878;4.742;2022-11-20T06:17:33;28.93;;;17.80;;
10045;SDS011;5063;50.878;4.742;2022-11-20T06:19:59;29.40;;;17.27;;
10045;SDS011;5063;50.878;4.742;2022-11-20T06:22:24;30.83;;;19.37;;
10045;SDS011;5063;50.878;4.742;2022-11-20T06:24:50;30.43;;;18.30;;
10045;SDS011;5063;50.878;4.742;2022-11-20T06:27:16;30.17;;;17.87;;
10045;SDS011;5063;50.878;4.742;2022-11-20T06:29:42;27.83;;;16.43;;
10045;SDS011;5063;50.878;4.742;2022-11-20T06:32:07;27.47;;;17.50;;
10045;SDS011;5063;50.878;4.742;2022-11-20T06:34:33;31.20;;;18.23;;
10045;SDS011;5063;50.878;4.742;2022-11-20T06:36:59;32.47;;;18.37;;
10045;SDS011;5063;50.878;4.742;2022-11-20T06:39:25;29.97;;;17.13;;
10045;SDS011;5063;50.878;4.742;2022-11-20T06:41:50;29.03;;;17.37;;
10045;SDS011;5063;50.878;4.742;2022-11-20T06:44:16;30.93;;;18.13;;
10045;SDS011;5063;50.878;4.742;2022-11-20T06:46:42;31.87;;;19.93;;
10045;SDS011;5063;50.878;4.742;2022-11-20T06:49:07;29.97;;;18.33;;
10045;SDS011;5063;50.878;4.742;2022-11-20T06:51:33;37.27;;;20.43;;
10045;SDS011;5063;50.878;4.742;2022-11-20T06:53:59;31.93;;;17.67;;
10045;SDS011;5063;50.878;4.742;2022-11-20T06:56:25;35.33;;;19.43;;
10045;SDS011;5063;50.878;4.742;2022-11-20T06:58:51;37.40;;;19.50;;
10045;SDS011;5063;50.878;4.742;2022-11-20T07:01:17;40.73;;;21.00;;
10045;SDS011;5063;50.878;4.742;2022-11-20T07:03:43;42.50;;;20.63;;
10045;SDS011;5063;50.878;4.742;2022-11-20T07:06:08;35.10;;;20.47;;
10045;SDS011;5063;50.878;4.742;2022-11-20T07:08:34;43.43;;;19.40;;
10045;SDS011;5063;50.878;4.742;2022-11-20T07:11:01;46.73;;;21.23;;
10045;SDS011;5063;50.878;4.742;2022-11-20T07:13:29;43.63;;;21.70;;
10045;SDS011;5063;50.878;4.742;2022-11-20T07:15:58;44.23;;;20.17;;
10045;SDS011;5063;50.878;4.742;2022-11-20T07:18:29;45.57;;;21.73;;
10045;SDS011;5063;50.878;4.742;2022-11-20T07:20:55;42.93;;;21.07;;
10045;SDS011;5063;50.878;4.742;2022-11-20T07:23:20;42.03;;;21.77;;
10045;SDS011;5063;50.878;4.742;2022-11-20T07:25:46;41.53;;;21.07;;
10045;SDS011;5063;50.878;4.742;2022-11-20T07:28:12;50.40;;;22.67;;
10045;SDS011;5063;50.878;4.742;2022-11-20T07:30:38;47.10;;;22.03;;
10045;SDS011;5063;50.878;4.742;2022-11-20T07:33:04;54.77;;;23.47;;
10045;SDS011;5063;50.878;4.742;2022-11-20T07:35:30;45.33;;;20.57;;
10045;SDS011;5063;50.878;4.742;2022-11-20T07:37:56;49.90;;;21.50;;
10045;SDS011;5063;50.878;4.742;2022-11-20T07:40:21;49.93;;;21.37;;
10045;SDS011;5063;50.878;4.742;2022-11-20T07:42:48;51.90;;;22.20;;
10045;SDS011;5063;50.878;4.742;2022-11-20T07:45:18;48.03;;;21.03;;
10045;SDS011;5063;50.878;4.742;2022-11-20T07:47:45;47.17;;;23.30;;
10045;SDS011;5063;50.878;4.742;2022-11-20T07:50:11;46.40;;;22.50;;
10045;SDS011;5063;50.878;4.742;2022-11-20T07:52:38;46.60;;;23.67;;
10045;SDS011;5063;50.878;4.742;2022-11-20T07:55:05;50.13;;;22.43;;
10045;SDS011;5063;50.878;4.742;2022-11-20T07:57:31;48.53;;;22.83;;
10045;SDS011;5063;50.878;4.742;2022-11-20T07:59:57;48.97;;;24.17;;
10045;SDS011;5063;50.878;4.742;2022-11-20T08:02:23;50.40;;;23.30;;
10045;SDS011;5063;50.878;4.742;2022-11-20T08:04:48;46.13;;;22.90;;
10045;SDS011;5063;50.878;4.742;2022-11-20T08:07:14;48.97;;;23.50;;
10045;SDS011;5063;50.878;4.742;2022-11-20T08:09:40;44.90;;;22.63;;
10045;SDS011;5063;50.878;4.742;2022-11-20T08:12:05;53.03;;;22.50;;
10045;SDS011;5063;50.878;4.742;2022-11-20T08:14:50;51.40;;;23.30;;
10045;SDS011;5063;50.878;4.742;2022-11-20T08:17:16;53.13;;;24.27;;
10045;SDS011;5063;50.878;4.742;2022-11-20T08:19:41;54.87;;;25.00;;
10045;SDS011;5063;50.878;4.742;2022-11-20T08:22:07;56.77;;;24.90;;
10045;SDS011;5063;50.878;4.742;2022-11-20T08:24:33;46.80;;;23.10;;
10045;SDS011;5063;50.878;4.742;2022-11-20T08:26:58;47.83;;;23.73;;
10045;SDS011;5063;50.878;4.742;2022-11-20T08:29:28;47.97;;;23.07;;
10045;SDS011;5063;50.878;4.742;2022-11-20T08:31:53;46.60;;;24.53;;
10045;SDS011;5063;50.878;4.742;2022-11-20T08:34:19;43.53;;;23.03;;
10045;SDS011;5063;50.878;4.742;2022-11-20T08:36:45;48.50;;;23.93;;
10045;SDS011;5063;50.878;4.742;2022-11-20T08:39:11;50.33;;;22.57;;
10045;SDS011;5063;50.878;4.742;2022-11-20T08:41:38;48.63;;;23.33;;
10045;SDS011;5063;50.878;4.742;2022-11-20T08:44:04;49.27;;;22.83;;
10045;SDS011;5063;50.878;4.742;2022-11-20T08:46:33;50.93;;;24.50;;
10045;SDS011;5063;50.878;4.742;2022-11-20T08:49:01;51.43;;;24.53;;
10045;SDS011;5063;50.878;4.742;2022-11-20T08:51:27;52.73;;;24.87;;
10045;SDS011;5063;50.878;4.742;2022-11-20T08:53:53;45.10;;;23.20;;
10045;SDS011;5063;50.878;4.742;2022-11-20T08:56:18;52.50;;;23.47;;
10045;SDS011;5063;50.878;4.742;2022-11-20T08:58:44;50.33;;;24.53;;
10045;SDS011;5063;50.878;4.742;2022-11-20T09:01:10;53.90;;;24.83;;
10045;SDS011;5063;50.878;4.742;2022-11-20T09:03:36;53.97;;;23.83;;
10045;SDS011;5063;50.878;4.742;2022-11-20T09:06:02;47.50;;;22.77;;
10045;SDS011;5063;50.878;4.742;2022-11-20T09:08:30;47.33;;;23.37;;
10045;SDS011;5063;50.878;4.742;2022-11-20T09:10:57;45.03;;;23.90;;
10045;SDS011;5063;50.878;4.742;2022-11-20T09:13:23;44.00;;;22.47;;
10045;SDS011;5063;50.878;4.742;2022-11-20T09:15:53;51.10;;;23.10;;
10045;SDS011;5063;50.878;4.742;2022-11-20T09:18:20;47.33;;;22.10;;
10045;SDS011;5063;50.878;4.742;2022-11-20T09:20:46;51.90;;;22.60;;
10045;SDS011;5063;50.878;4.742;2022-11-20T09:23:12;53.00;;;22.77;;
10045;SDS011;5063;50.878;4.742;2022-11-20T09:25:38;44.63;;;23.13;;
10045;SDS011;5063;50.878;4.742;2022-11-20T09:28:03;46.57;;;23.20;;
10045;SDS011;5063;50.878;4.742;2022-11-20T09:30:30;48.67;;;23.33;;
10045;SDS011;5063;50.878;4.742;2022-11-20T09:32:56;43.20;;;23.30;;
10045;SDS011;5063;50.878;4.742;2022-11-20T09:35:21;50.33;;;22.57;;
10045;SDS011;5063;50.878;4.742;2022-11-20T09:37:47;49.63;;;21.30;;
10045;SDS011;5063;50.878;4.742;2022-11-20T09:40:24;50.53;;;22.73;;
10045;SDS011;5063;50.878;4.742;2022-11-20T09:45:36;53.20;;;23.27;;
10045;SDS011;5063;50.878;4.742;2022-11-20T09:48:18;45.83;;;21.87;;
10045;SDS011;5063;50.878;4.742;2022-11-20T09:50:55;43.70;;;20.87;;
10045;SDS011;5063;50.878;4.742;2022-11-20T09:53:42;38.97;;;21.20;;
10045;SDS011;5063;50.878;4.742;2022-11-20T09:56:19;35.23;;;19.93;;
10045;SDS011;5063;50.878;4.742;2022-11-20T09:58:50;40.53;;;19.67;;
10045;SDS011;5063;50.878;4.742;2022-11-20T10:01:21;41.47;;;19.17;;
10045;SDS011;5063;50.878;4.742;2022-11-20T10:03:56;38.27;;;19.20;;
10045;SDS011;5063;50.878;4.742;2022-11-20T10:06:33;34.67;;;19.33;;
10045;SDS011;5063;50.878;4.742;2022-11-20T10:09:06;36.00;;;18.20;;
10045;SDS011;5063;50.878;4.742;2022-11-20T10:12:20;29.00;;;16.73;;
10045;SDS011;5063;50.878;4.742;2022-11-20T10:25:20;28.50;;;16.33;;
10045;SDS011;5063;50.878;4.742;2022-11-20T10:30:37;28.03;;;16.00;;
10045;SDS011;5063;50.878;4.742;2022-11-20T10:33:13;29.30;;;17.13;;
10045;SDS011;5063;50.878;4.742;2022-11-20T10:35:44;24.73;;;14.57;;
10045;SDS011;5063;50.878;4.742;2022-11-20T10:38:43;27.93;;;16.77;;
10045;SDS011;5063;50.878;4.742;2022-11-20T10:41:20;28.77;;;15.40;;
10045;SDS011;5063;50.878;4.742;2022-11-20T10:46:48;24.60;;;14.30;;
10045;SDS011;5063;50.878;4.742;2022-11-20T10:49:15;27.73;;;15.57;;
10045;SDS011;5063;50.878;4.742;2022-11-20T10:54:44;25.73;;;14.03;;
10045;SDS011;5063;50.878;4.742;2022-11-20T11:00:22;22.00;;;13.20;;
10045;SDS011;5063;50.878;4.742;2022-11-20T11:07:46;18.10;;;11.07;;
10045;SDS011;5063;50.878;4.742;2022-11-20T11:10:16;18.47;;;10.73;;
10045;SDS011;5063;50.878;4.742;2022-11-20T11:12:45;15.17;;;9.53;;
10045;SDS011;5063;50.878;4.742;2022-11-20T11:15:24;19.50;;;9.07;;
10045;SDS011;5063;50.878;4.742;2022-11-20T11:17:50;13.77;;;7.87;;
10045;SDS011;5063;50.878;4.742;2022-11-20T11:20:23;13.10;;;8.27;;
10045;SDS011;5063;50.878;4.742;2022-11-20T11:22:51;13.33;;;7.60;;
10045;SDS011;5063;50.878;4.742;2022-11-20T11:27:48;9.67;;;5.73;;
10045;SDS011;5063;50.878;4.742;2022-11-20T11:30:15;11.13;;;5.43;;
10045;SDS011;5063;50.878;4.742;2022-11-20T11:32:42;7.83;;;5.70;;
10045;SDS011;5063;50.878;4.742;2022-11-20T11:38:28;7.73;;;4.80;;
10045;SDS011;5063;50.878;4.742;2022-11-20T11:40:54;7.50;;;4.40;;
10045;SDS011;5063;50.878;4.742;2022-11-20T11:43:23;6.60;;;4.00;;
10045;SDS011;5063;50.878;4.742;2022-11-20T11:46:27;7.33;;;4.17;;
10045;SDS011;5063;50.878;4.742;2022-11-20T11:54:03;6.47;;;3.80;;
10045;SDS011;5063;50.878;4.742;2022-11-20T11:56:39;5.80;;;3.73;;
10045;SDS011;5063;50.878;4.742;2022-11-20T11:59:06;5.63;;;3.40;;
10045;SDS011;5063;50.878;4.742;2022-11-20T12:01:44;6.50;;;2.83;;
10045;SDS011;5063;50.878;4.742;2022-11-20T12:07:20;6.60;;;2.87;;
10045;SDS011;5063;50.878;4.742;2022-11-20T12:09:55;6.43;;;2.77;;
10045;SDS011;5063;50.878;4.742;2022-11-20T12:12:33;3.03;;;2.30;;
10045;SDS011;5063;50.878;4.742;2022-11-20T12:15:04;4.83;;;2.43;;
10045;SDS011;5063;50.878;4.742;2022-11-20T12:17:34;4.77;;;2.70;;
10045;SDS011;5063;50.878;4.742;2022-11-20T12:20:02;4.67;;;2.40;;
10045;SDS011;5063;50.878;4.742;2022-11-20T12:25:19;5.80;;;2.73;;
10045;SDS011;5063;50.878;4.742;2022-11-20T12:30:20;3.63;;;2.33;;
10045;SDS011;5063;50.878;4.742;2022-11-20T12:41:27;6.90;;;2.23;;
10045;SDS011;5063;50.878;4.742;2022-11-20T12:44:31;3.57;;;2.43;;
10045;SDS011;5063;50.878;4.742;2022-11-20T12:50:32;4.23;;;2.27;;
10045;SDS011;5063;50.878;4.742;2022-11-20T12:57:01;3.17;;;2.20;;
10045;SDS011;5063;50.878;4.742;2022-11-20T13:02:27;2.43;;;2.00;;
10045;SDS011;5063;50.878;4.742;2022-11-20T13:07:53;6.83;;;2.33;;
10045;SDS011;5063;50.878;4.742;2022-11-20T13:10:22;7.40;;;2.70;;
10045;SDS011;5063;50.878;4.742;2022-11-20T13:12:58;2.90;;;2.40;;
10045;SDS011;5063;50.878;4.742;2022-11-20T13:18:20;4.97;;;2.97;;
10045;SDS011;5063;50.878;4.742;2022-11-20T13:20:46;5.17;;;3.03;;
10045;SDS011;5063;50.878;4.742;2022-11-20T13:23:27;4.13;;;2.43;;
10045;SDS011;5063;50.878;4.742;2022-11-20T13:26:03;6.50;;;2.70;;
10045;SDS011;5063;50.878;4.742;2022-11-20T13:28:40;7.20;;;2.57;;
10045;SDS011;5063;50.878;4.742;2022-11-20T13:31:09;3.70;;;2.70;;
10045;SDS011;5063;50.878;4.742;2022-11-20T13:33:49;4.00;;;2.33;;
10045;SDS011;5063;50.878;4.742;2022-11-20T13:36:20;5.13;;;2.47;;
10045;SDS011;5063;50.878;4.742;2022-11-20T13:38:49;3.67;;;2.67;;
10045;SDS011;5063;50.878;4.742;2022-11-20T13:46:45;7.67;;;2.70;;
10045;SDS011;5063;50.878;4.742;2022-11-20T13:52:27;5.00;;;2.57;;
10045;SDS011;5063;50.878;4.742;2022-11-20T13:55:42;5.20;;;2.47;;
10045;SDS011;5063;50.878;4.742;2022-11-20T14:01:26;3.27;;;2.57;;
10045;SDS011;5063;50.878;4.742;2022-11-20T14:03:56;5.57;;;2.80;;
10045;SDS011;5063;50.878;4.742;2022-11-20T14:08:59;5.97;;;2.67;;
10045;SDS011;5063;50.878;4.742;2022-11-20T14:11:29;4.77;;;2.00;;
10045;SDS011;5063;50.878;4.742;2022-11-20T14:16:34;5.83;;;2.43;;
10045;SDS011;5063;50.878;4.742;2022-11-20T14:19:20;3.20;;;1.97;;
10045;SDS011;5063;50.878;4.742;2022-11-20T14:21:52;5.57;;;2.20;;
10045;SDS011;5063;50.878;4.742;2022-11-20T14:24:38;2.87;;;2.00;;
10045;SDS011;5063;50.878;4.742;2022-11-20T14:27:04;3.90;;;2.40;;
10045;SDS011;5063;50.878;4.742;2022-11-20T14:29:35;2.70;;;2.17;;
10045;SDS011;5063;50.878;4.742;2022-11-20T14:32:02;2.30;;;1.93;;
10045;SDS011;5063;50.878;4.742;2022-11-20T14:34:29;4.10;;;2.33;;
10045;SDS011;5063;50.878;4.742;2022-11-20T14:36:59;4.17;;;2.13;;
10045;SDS011;5063;50.878;4.742;2022-11-20T14:39:37;2.83;;;1.90;;
10045;SDS011;5063;50.878;4.742;2022-11-20T14:42:16;2.53;;;2.07;;
10045;SDS011;5063;50.878;4.742;2022-11-20T14:44:47;3.17;;;2.30;;
10045;SDS011;5063;50.878;4.742;2022-11-20T14:47:35;2.03;;;1.83;;
10045;SDS011;5063;50.878;4.742;2022-11-20T14:50:00;4.90;;;2.10;;
10045;SDS011;5063;50.878;4.742;2022-11-20T14:52:27;1.90;;;1.80;;
10045;SDS011;5063;50.878;4.742;2022-11-20T14:54:54;2.77;;;2.20;;
10045;SDS011;5063;50.878;4.742;2022-11-20T14:59:50;2.00;;;1.90;;
10045;SDS011;5063;50.878;4.742;2022-11-20T15:02:16;2.23;;;1.87;;
10045;SDS011;5063;50.878;4.742;2022-11-20T15:04:49;3.10;;;1.93;;
10045;SDS011;5063;50.878;4.742;2022-11-20T15:07:28;1.93;;;1.73;;
10045;SDS011;5063;50.878;4.742;2022-11-20T15:10:00;3.93;;;1.60;;
10045;SDS011;5063;50.878;4.742;2022-11-20T15:12:27;2.33;;;2.13;;
10045;SDS011;5063;50.878;4.742;2022-11-20T15:14:54;3.20;;;1.93;;
10045;SDS011;5063;50.878;4.742;2022-11-20T15:17:20;3.23;;;1.90;;
10045;SDS011;5063;50.878;4.742;2022-11-20T15:19:46;2.27;;;2.03;;
10045;SDS011;5063;50.878;4.742;2022-11-20T15:22:12;2.73;;;2.00;;
10045;SDS011;5063;50.878;4.742;2022-11-20T15:24:38;2.77;;;2.10;;
10045;SDS011;5063;50.878;4.742;2022-11-20T15:27:04;3.20;;;2.40;;
10045;SDS011;5063;50.878;4.742;2022-11-20T15:29:30;3.07;;;2.00;;
10045;SDS011;5063;50.878;4.742;2022-11-20T15:31:55;3.50;;;2.30;;
10045;SDS011;5063;50.878;4.742;2022-11-20T15:34:21;2.40;;;2.10;;
10045;SDS011;5063;50.878;4.742;2022-11-20T15:36:47;2.47;;;2.13;;
10045;SDS011;5063;50.878;4.742;2022-11-20T15:39:13;4.73;;;2.20;;
10045;SDS011;5063;50.878;4.742;2022-11-20T15:41:38;2.40;;;2.20;;
10045;SDS011;5063;50.878;4.742;2022-11-20T15:44:04;4.27;;;2.90;;
10045;SDS011;5063;50.878;4.742;2022-11-20T15:46:30;3.10;;;2.80;;
10045;SDS011;5063;50.878;4.742;2022-11-20T15:49:02;4.87;;;3.10;;
10045;SDS011;5063;50.878;4.742;2022-11-20T15:51:33;3.87;;;2.77;;
10045;SDS011;5063;50.878;4.742;2022-11-20T15:54:22;7.13;;;3.00;;
10045;SDS011;5063;50.878;4.742;2022-11-20T15:56:48;7.90;;;3.67;;
10045;SDS011;5063;50.878;4.742;2022-11-20T15:59:14;8.33;;;3.47;;
10045;SDS011;5063;50.878;4.742;2022-11-20T16:01:40;5.20;;;3.70;;
10045;SDS011;5063;50.878;4.742;2022-11-20T16:04:10;6.70;;;3.67;;
10045;SDS011;5063;50.878;4.742;2022-11-20T16:06:38;3.53;;;3.00;;
10045;SDS011;5063;50.878;4.742;2022-11-20T16:09:04;8.53;;;3.70;;
10045;SDS011;5063;50.878;4.742;2022-11-20T16:11:29;6.80;;;3.70;;
10045;SDS011;5063;50.878;4.742;2022-11-20T16:13:55;5.93;;;3.63;;
10045;SDS011;5063;50.878;4.742;2022-11-20T16:16:39;9.97;;;3.83;;
10045;SDS011;5063;50.878;4.742;2022-11-20T16:19:10;8.80;;;3.37;;
10045;SDS011;5063;50.878;4.742;2022-11-20T16:21:37;5.60;;;3.40;;
10045;SDS011;5063;50.878;4.742;2022-11-20T16:24:05;5.40;;;3.10;;
10045;SDS011;5063;50.878;4.742;2022-11-20T16:26:31;11.60;;;3.93;;